Time,TemperatureF,DewpointF,PressureIn,WindDirection,WindDirectionDegrees,WindSpeedMPH,WindSpeedGustMPH,Humidity,HourlyPrecipIn,Conditions,Clouds,dailyrainin,SoftwareType,DateUTC
2013-02-03 00:10:00,39.3,34.6,29.98,WSW,248,1.0,10.0,83,0.00,,,0.00,Wunderground v.1.13,2013-02-03 05:10:00,
2013-02-03 00:20:00,39.5,34.8,29.98,South,180,1.0,5.0,83,0.00,,,0.00,Wunderground v.1.13,2013-02-03 05:20:00,
2013-02-03 00:30:00,39.6,34.9,29.97,WSW,241,1.0,1.0,83,0.00,,,0.00,Wunderground v.1.13,2013-02-03 05:30:00,
2013-02-03 00:40:00,39.6,34.9,29.97,SW,234,1.0,2.0,83,0.00,,,0.00,Wunderground v.1.13,2013-02-03 05:40:00,
2013-02-03 00:50:00,39.6,34.9,29.97,WSW,248,1.0,4.0,83,0.00,,,0.00,Wunderground v.1.13,2013-02-03 05:50:00,
2013-02-03 01:00:00,39.6,34.6,29.96,West,270,1.0,9.0,82,0.00,,,0.00,Wunderground v.1.13,2013-02-03 06:00:00,
2013-02-03 01:11:00,39.6,34.6,29.96,WSW,244,1.0,1.0,82,0.00,,,0.00,Wunderground v.1.13,2013-02-03 06:11:00,
2013-02-03 01:21:00,39.6,34.6,29.96,SW,227,1.0,1.0,82,0.00,,,0.00,Wunderground v.1.13,2013-02-03 06:21:00,
2013-02-03 01:30:00,39.5,34.5,29.95,WNW,288,1.0,1.0,82,0.00,,,0.00,Wunderground v.1.13,2013-02-03 06:30:00,
2013-02-03 01:50:00,39.1,34.1,29.95,SW,225,0.0,4.0,82,0.00,,,0.00,Wunderground v.1.13,2013-02-03 06:50:00,
2013-02-03 02:10:00,38.2,33.5,29.94,SW,225,1.0,5.0,83,0.00,,,0.00,Wunderground v.1.13,2013-02-03 07:10:00,
2013-02-03 02:20:00,37.6,33.5,29.93,West,270,0.0,2.0,85,0.00,,,0.00,Wunderground v.1.13,2013-02-03 07:20:00,
2013-02-03 02:30:00,37.3,33.2,29.93,West,270,0.0,5.0,85,0.00,,,0.00,Wunderground v.1.13,2013-02-03 07:30:00,
2013-02-03 02:40:00,37.5,33.7,29.93,SW,230,1.0,1.0,86,0.00,,,0.00,Wunderground v.1.13,2013-02-03 07:40:00,
2013-02-03 02:50:00,37.0,33.2,29.93,SW,230,0.0,0.0,86,0.00,,,0.00,Wunderground v.1.13,2013-02-03 07:50:00,
2013-02-03 03:00:00,36.9,33.1,29.92,South,180,0.0,0.0,86,0.00,,,0.00,Wunderground v.1.13,2013-02-03 08:00:00,
2013-02-03 03:20:00,36.8,33.3,29.92,SSW,203,0.0,3.0,87,0.00,,,0.00,Wunderground v.1.13,2013-02-03 08:20:00,
2013-02-03 03:40:00,36.2,32.7,29.92,N/A,-737280,0.0,0.0,87,0.00,,,0.00,Wunderground v.1.13,2013-02-03 08:40:00,
2013-02-03 03:51:00,35.9,32.7,29.91,SSW,203,1.0,4.0,88,0.00,,,0.00,Wunderground v.1.13,2013-02-03 08:51:00,
2013-02-03 04:01:00,35.9,33.0,29.91,SSW,203,0.0,3.0,89,0.00,,,0.00,Wunderground v.1.13,2013-02-03 09:01:00,
2013-02-03 04:11:00,35.9,32.7,29.91,N/A,-737280,0.0,0.0,88,0.00,,,0.00,Wunderground v.1.13,2013-02-03 09:11:00,
2013-02-03 04:21:00,35.3,32.1,29.90,SSW,203,0.0,1.0,88,0.00,,,0.00,Wunderground v.1.13,2013-02-03 09:21:00,
2013-02-03 04:41:00,35.0,32.1,29.90,N/A,-737280,0.0,0.0,89,0.00,,,0.00,Wunderground v.1.13,2013-02-03 09:41:00,
2013-02-03 05:00:00,34.6,31.7,29.90,WSW,248,0.0,3.0,89,0.00,,,0.00,Wunderground v.1.13,2013-02-03 10:00:00,
2013-02-03 05:10:00,34.3,31.4,29.90,WSW,248,0.0,1.0,89,0.00,,,0.00,Wunderground v.1.13,2013-02-03 10:10:00,
2013-02-03 05:20:00,34.3,31.4,29.91,WSW,248,0.0,3.0,89,0.00,,,0.00,Wunderground v.1.13,2013-02-03 10:20:00,
2013-02-03 05:40:00,34.3,31.1,29.90,WSW,248,0.0,3.0,88,0.00,,,0.00,Wunderground v.1.13,2013-02-03 10:40:00,
2013-02-03 05:50:00,34.3,30.0,29.91,WNW,293,0.0,3.0,84,0.00,,,0.00,Wunderground v.1.13,2013-02-03 10:50:00,
2013-02-03 06:00:00,34.4,28.2,29.91,WNW,296,1.0,2.0,78,0.00,,,0.00,Wunderground v.1.13,2013-02-03 11:00:00,
2013-02-03 06:20:00,35.5,26.0,29.91,WNW,293,2.0,7.0,68,0.00,,,0.00,Wunderground v.1.13,2013-02-03 11:20:00,
2013-02-03 06:30:00,35.6,25.4,29.91,WSW,254,0.0,0.0,66,0.00,,,0.00,Wunderground v.1.13,2013-02-03 11:30:00,
2013-02-03 06:40:00,35.2,25.0,29.92,WSW,253,0.0,0.0,66,0.00,,,0.00,Wunderground v.1.13,2013-02-03 11:40:00,
2013-02-03 06:50:00,34.9,24.3,29.92,WNW,303,0.0,0.0,65,0.00,,,0.00,Wunderground v.1.13,2013-02-03 11:50:00,
2013-02-03 07:00:00,34.7,24.1,29.92,WNW,303,0.0,0.0,65,0.00,,,0.00,Wunderground v.1.13,2013-02-03 12:00:00,
2013-02-03 07:11:00,34.7,24.1,29.91,WNW,303,0.0,0.0,65,0.00,,,0.00,Wunderground v.1.13,2013-02-03 12:11:00,
2013-02-03 07:21:00,34.4,24.2,29.91,WNW,293,0.0,1.0,66,0.00,,,0.00,Wunderground v.1.13,2013-02-03 12:21:00,
2013-02-03 07:40:00,34.3,24.1,29.91,WNW,293,0.0,3.0,66,0.00,,,0.00,Wunderground v.1.13,2013-02-03 12:40:00,
2013-02-03 07:51:00,34.3,25.9,29.91,WSW,248,1.0,3.0,71,0.00,,,0.00,Wunderground v.1.13,2013-02-03 12:51:00,
2013-02-03 08:01:00,34.0,26.6,29.91,WSW,248,0.0,2.0,74,0.00,,,0.00,Wunderground v.1.13,2013-02-03 13:01:00,
2013-02-03 08:20:00,34.3,27.2,29.91,SSW,203,1.0,5.0,75,0.00,,,0.00,Wunderground v.1.13,2013-02-03 13:20:00,
2013-02-03 08:30:00,35.3,27.8,29.91,WSW,255,0.0,0.0,74,0.00,,,0.00,Wunderground v.1.13,2013-02-03 13:30:00,
2013-02-03 08:40:00,36.2,28.7,29.92,South,190,1.0,1.0,74,0.00,,,0.00,Wunderground v.1.13,2013-02-03 13:40:00,
2013-02-03 08:50:00,36.9,29.1,29.92,SSW,207,1.0,1.0,73,0.00,,,0.00,Wunderground v.1.13,2013-02-03 13:50:00,
2013-02-03 09:00:00,37.8,29.6,29.92,SSW,203,1.0,5.0,72,0.00,,,0.00,Wunderground v.1.13,2013-02-03 14:00:00,
2013-02-03 09:10:00,38.6,30.0,29.92,SSW,203,2.0,3.0,71,0.00,,,0.00,Wunderground v.1.13,2013-02-03 14:10:00,
2013-02-03 09:20:00,39.3,30.3,29.91,South,182,1.0,1.0,70,0.00,,,0.00,Wunderground v.1.13,2013-02-03 14:20:00,
2013-02-03 09:30:00,40.2,30.1,29.91,SW,236,2.0,2.0,67,0.00,,,0.00,Wunderground v.1.13,2013-02-03 14:30:00,
2013-02-03 09:40:00,41.6,30.3,29.91,SSW,203,2.0,9.0,64,0.00,,,0.00,Wunderground v.1.13,2013-02-03 14:40:00,
2013-02-03 09:50:00,42.5,30.0,29.91,SW,225,2.0,6.0,61,0.00,,,0.00,Wunderground v.1.13,2013-02-03 14:50:00,
2013-02-03 10:10:00,43.2,31.4,29.91,SSW,203,1.0,5.0,63,0.00,,,0.00,Wunderground v.1.13,2013-02-03 15:10:00,
2013-02-03 10:20:00,44.2,30.8,29.90,SSW,201,3.0,4.0,59,0.00,,,0.00,Wunderground v.1.13,2013-02-03 15:20:00,
2013-02-03 10:30:00,44.9,30.6,29.90,WSW,247,3.0,3.0,57,0.00,,,0.00,Wunderground v.1.13,2013-02-03 15:30:00,
2013-02-03 10:40:00,45.8,30.1,29.90,SW,223,3.0,3.0,54,0.00,,,0.00,Wunderground v.1.13,2013-02-03 15:40:00,
2013-02-03 10:50:00,46.0,29.8,29.90,SSW,198,4.0,4.0,53,0.00,,,0.00,Wunderground v.1.13,2013-02-03 15:50:00,
2013-02-03 11:00:00,46.5,30.7,29.90,SSW,201,3.0,3.0,54,0.00,,,0.00,Wunderground v.1.13,2013-02-03 16:00:00,
2013-02-03 11:10:00,47.1,30.4,29.89,SSW,211,3.0,3.0,52,0.00,,,0.00,Wunderground v.1.13,2013-02-03 16:10:00,
2013-02-03 11:20:00,48.0,30.7,29.88,SSW,211,2.0,2.0,51,0.00,,,0.00,Wunderground v.1.13,2013-02-03 16:20:00,
2013-02-03 11:30:00,48.3,30.5,29.88,NW,306,3.0,3.0,50,0.00,,,0.00,Wunderground v.1.13,2013-02-03 16:30:00,
2013-02-03 11:40:00,48.9,30.1,29.89,NW,326,4.0,4.0,48,0.00,,,0.00,Wunderground v.1.13,2013-02-03 16:40:00,
2013-02-03 11:50:00,49.8,29.8,29.87,West,273,3.0,3.0,46,0.00,,,0.00,Wunderground v.1.13,2013-02-03 16:50:00,
2013-02-03 12:00:00,49.9,29.4,29.87,NW,309,4.0,5.0,45,0.00,,,0.00,Wunderground v.1.13,2013-02-03 17:00:00,
2013-02-03 12:10:00,50.5,29.9,29.86,WNW,289,3.0,3.0,45,0.00,,,0.00,Wunderground v.1.13,2013-02-03 17:10:00,
2013-02-03 12:20:00,51.0,30.4,29.85,WSW,242,2.0,3.0,45,0.00,,,0.00,Wunderground v.1.13,2013-02-03 17:20:00,
2013-02-03 12:30:00,49.9,28.8,29.85,SW,225,3.0,3.0,44,0.00,,,0.00,Wunderground v.1.13,2013-02-03 17:30:00,
2013-02-03 12:50:00,49.6,29.6,29.84,NNW,338,6.0,13.0,46,0.00,,,0.00,Wunderground v.1.13,2013-02-03 17:50:00,
2013-02-03 13:00:00,49.6,29.6,29.84,NW,325,5.0,5.0,46,0.00,,,0.00,Wunderground v.1.13,2013-02-03 18:00:00,
2013-02-03 13:20:00,50.2,29.1,29.83,WNW,293,2.0,5.0,44,0.00,,,0.00,Wunderground v.1.13,2013-02-03 18:20:00,
2013-02-03 13:30:00,51.3,30.1,29.81,NW,305,3.0,6.0,44,0.00,,,0.00,Wunderground v.1.13,2013-02-03 18:30:00,
2013-02-03 13:41:00,52.8,29.1,29.81,NW,315,5.0,10.0,40,0.00,,,0.00,Wunderground v.1.13,2013-02-03 18:41:00,
2013-02-03 14:00:00,53.1,27.5,29.81,NW,315,4.0,10.0,37,0.00,,,0.00,Wunderground v.1.13,2013-02-03 19:00:00,
2013-02-03 14:10:00,53.1,27.5,29.80,WSW,246,5.0,5.0,37,0.00,,,0.00,Wunderground v.1.13,2013-02-03 19:10:00,
2013-02-03 14:20:00,52.5,27.6,29.79,NNW,337,7.0,7.0,38,0.00,,,0.00,Wunderground v.1.13,2013-02-03 19:20:00,
2013-02-03 14:30:00,52.5,26.9,29.79,NW,311,6.0,8.0,37,0.00,,,0.00,Wunderground v.1.13,2013-02-03 19:30:00,
2013-02-03 14:40:00,52.5,26.9,29.80,NW,315,3.0,9.0,37,0.00,,,0.00,Wunderground v.1.13,2013-02-03 19:40:00,
2013-02-03 14:50:00,53.2,28.2,29.80,West,276,2.0,4.0,38,0.00,,,0.00,Wunderground v.1.13,2013-02-03 19:50:00,
2013-02-03 15:00:00,53.9,26.8,29.80,SW,220,3.0,3.0,35,0.00,,,0.00,Wunderground v.1.13,2013-02-03 20:00:00,
2013-02-03 15:10:00,53.9,28.2,29.81,NW,311,2.0,3.0,37,0.00,,,0.00,Wunderground v.1.13,2013-02-03 20:10:00,
2013-02-03 15:20:00,53.6,27.3,29.81,SW,229,4.0,4.0,36,0.00,,,0.00,Wunderground v.1.13,2013-02-03 20:20:00,
2013-02-03 15:30:00,53.8,25.3,29.81,NW,313,3.0,3.0,33,0.00,,,0.00,Wunderground v.1.13,2013-02-03 20:30:00,
2013-02-03 15:40:00,53.3,23.4,29.80,WNW,293,5.0,12.0,31,0.00,,,0.00,Wunderground v.1.13,2013-02-03 20:40:00,
2013-02-03 15:50:00,53.1,23.2,29.81,NW,312,9.0,9.0,31,0.00,,,0.00,Wunderground v.1.13,2013-02-03 20:50:00,
2013-02-03 16:00:00,52.8,21.4,29.81,NW,319,7.0,8.0,29,0.00,,,0.00,Wunderground v.1.13,2013-02-03 21:00:00,
2013-02-03 16:10:00,52.2,21.7,29.82,NW,315,11.0,23.0,30,0.00,,,0.00,Wunderground v.1.13,2013-02-03 21:10:00,
2013-02-03 16:20:00,51.7,19.6,29.82,NNW,338,9.0,17.0,28,0.00,,,0.00,Wunderground v.1.13,2013-02-03 21:20:00,
2013-02-03 16:30:00,51.6,20.3,29.82,NW,321,7.0,11.0,29,0.00,,,0.00,Wunderground v.1.13,2013-02-03 21:30:00,
2013-02-03 16:40:00,51.0,19.0,29.84,NW,312,10.0,10.0,28,0.00,,,0.00,Wunderground v.1.13,2013-02-03 21:40:00,
2013-02-03 16:50:00,50.2,17.5,29.84,NW,315,8.0,15.0,27,0.00,,,0.00,Wunderground v.1.13,2013-02-03 21:50:00,
2013-02-03 17:00:00,49.6,19.4,29.85,NNW,338,12.0,19.0,30,0.00,,,0.00,Wunderground v.1.13,2013-02-03 22:00:00,
2013-02-03 17:10:00,49.4,20.0,29.85,WNW,302,9.0,17.0,31,0.00,,,0.00,Wunderground v.1.13,2013-02-03 22:10:00,
2013-02-03 17:20:00,48.8,20.2,29.86,West,278,11.0,15.0,32,0.00,,,0.00,Wunderground v.1.13,2013-02-03 22:20:00,
2013-02-03 17:30:00,48.0,20.2,29.86,NW,313,9.0,9.0,33,0.00,,,0.00,Wunderground v.1.13,2013-02-03 22:30:00,
2013-02-03 17:40:00,47.3,21.0,29.87,WNW,293,7.0,13.0,35,0.00,,,0.00,Wunderground v.1.13,2013-02-03 22:40:00,
2013-02-03 17:50:00,47.0,20.7,29.87,WNW,297,9.0,10.0,35,0.00,,,0.00,Wunderground v.1.13,2013-02-03 22:50:00,
2013-02-03 18:00:00,46.4,21.5,29.87,NW,318,8.0,12.0,37,0.00,,,0.00,Wunderground v.1.13,2013-02-03 23:00:00,
2013-02-03 18:10:00,46.0,21.8,29.88,WNW,293,6.0,14.0,38,0.00,,,0.00,Wunderground v.1.13,2013-02-03 23:10:00,
2013-02-03 18:30:00,45.5,21.9,29.88,NW,315,8.0,20.0,39,0.00,,,0.00,Wunderground v.1.13,2013-02-03 23:30:00,
2013-02-03 18:40:00,44.3,22.1,29.89,WNW,290,3.0,6.0,41,0.00,,,0.00,Wunderground v.1.13,2013-02-03 23:40:00,
2013-02-03 18:50:00,44.1,21.9,29.90,WNW,293,3.0,9.0,41,0.00,,,0.00,Wunderground v.1.13,2013-02-03 23:50:00,
2013-02-03 19:00:00,44.1,22.4,29.90,NNW,333,6.0,8.0,42,0.00,,,0.00,Wunderground v.1.13,2013-02-04 00:00:00,
2013-02-03 19:11:00,43.9,22.3,29.90,NW,315,8.0,16.0,42,0.00,,,0.00,Wunderground v.1.13,2013-02-04 00:11:00,
2013-02-03 19:21:00,43.8,22.7,29.91,NW,315,5.0,9.0,43,0.00,,,0.00,Wunderground v.1.13,2013-02-04 00:21:00,
2013-02-03 19:40:00,43.1,22.6,29.91,NNW,338,5.0,9.0,44,0.00,,,0.00,Wunderground v.1.13,2013-02-04 00:40:00,
2013-02-03 19:50:00,42.5,22.1,29.92,NW,315,4.0,7.0,44,0.00,,,0.00,Wunderground v.1.13,2013-02-04 00:50:00,
2013-02-03 20:10:00,42.6,22.2,29.92,WNW,293,1.0,4.0,44,0.00,,,0.00,Wunderground v.1.13,2013-02-04 01:10:00,
2013-02-03 20:20:00,42.2,21.8,29.93,WNW,286,2.0,3.0,44,0.00,,,0.00,Wunderground v.1.13,2013-02-04 01:20:00,
2013-02-03 20:40:00,42.1,22.3,29.92,WNW,293,2.0,5.0,45,0.00,,,0.00,Wunderground v.1.13,2013-02-04 01:40:00,
2013-02-03 20:50:00,42.8,22.4,29.92,NW,319,10.0,15.0,44,0.00,,,0.00,Wunderground v.1.13,2013-02-04 01:50:00,
2013-02-03 21:00:00,42.9,23.0,29.92,NW,310,8.0,16.0,45,0.00,,,0.00,Wunderground v.1.13,2013-02-04 02:00:00,
2013-02-03 21:10:00,42.5,23.2,29.93,NW,323,5.0,5.0,46,0.00,,,0.00,Wunderground v.1.13,2013-02-04 02:10:00,
2013-02-03 21:30:00,42.3,23.0,29.94,WNW,293,6.0,14.0,46,0.00,,,0.00,Wunderground v.1.13,2013-02-04 02:30:00,
2013-02-03 21:40:00,41.3,23.1,29.94,WNW,293,3.0,10.0,48,0.00,,,0.00,Wunderground v.1.13,2013-02-04 02:40:00,
2013-02-03 22:00:00,41.1,22.9,29.94,NW,315,1.0,8.0,48,0.00,,,0.00,Wunderground v.1.13,2013-02-04 03:00:00,
2013-02-03 22:10:00,40.5,22.3,29.95,West,261,1.0,1.0,48,0.00,,,0.00,Wunderground v.1.13,2013-02-04 03:10:00,
2013-02-03 22:21:00,40.2,23.0,29.95,West,277,1.0,2.0,50,0.00,,,0.00,Wunderground v.1.13,2013-02-04 03:21:00,
2013-02-03 22:30:00,39.6,21.5,29.94,NW,306,3.0,6.0,48,0.00,,,0.00,Wunderground v.1.13,2013-02-04 03:30:00,
2013-02-03 22:40:00,39.6,21.5,29.94,WNW,301,4.0,4.0,48,0.00,,,0.00,Wunderground v.1.13,2013-02-04 03:40:00,
2013-02-03 22:50:00,39.6,21.5,29.94,NW,315,4.0,11.0,48,0.00,,,0.00,Wunderground v.1.13,2013-02-04 03:50:00,
2013-02-03 23:01:00,39.8,21.2,29.95,WSW,257,4.0,4.0,47,0.00,,,0.00,Wunderground v.1.13,2013-02-04 04:01:00,
2013-02-03 23:10:00,39.5,21.4,29.95,NNW,334,4.0,4.0,48,0.00,,,0.00,Wunderground v.1.13,2013-02-04 04:10:00,
2013-02-03 23:20:00,39.2,21.1,29.95,WNW,293,2.0,8.0,48,0.00,,,0.00,Wunderground v.1.13,2013-02-04 04:20:00,
2013-02-03 23:30:00,38.6,22.0,29.95,NW,304,2.0,2.0,51,0.00,,,0.00,Wunderground v.1.13,2013-02-04 04:30:00,
2013-02-03 23:40:00,38.0,21.5,29.95,NW,315,4.0,8.0,51,0.00,,,0.00,Wunderground v.1.13,2013-02-04 04:40:00,
2013-02-03 23:50:00,37.3,21.3,29.95,NW,312,2.0,4.0,52,0.00,,,0.00,Wunderground v.1.13,2013-02-04 04:50:00,